sensor_id;sensor_type;location;lat;lon;timestamp;temperature;humidity
4602;DHT22;2313;48.552;9.370;2023-04-19T00:01:27;9.70;99.90
4602;DHT22;2313;48.552;9.370;2023-04-19T00:03:54;9.70;99.90
4602;DHT22;2313;48.552;9.370;2023-04-19T00:06:21;9.70;99.90
4602;DHT22;2313;48.552;9.370;2023-04-19T00:08:46;9.70;99.90
4602;DHT22;2313;48.552;9.370;2023-04-19T00:11:12;9.60;99.90
4602;DHT22;2313;48.552;9.370;2023-04-19T00:13:38;9.60;99.90
4602;DHT22;2313;48.552;9.370;2023-04-19T00:16:04;9.60;99.90
4602;DHT22;2313;48.552;9.370;2023-04-19T00:18:30;9.60;99.90
4602;DHT22;2313;48.552;9.370;2023-04-19T00:20:55;9.60;99.90
4602;DHT22;2313;48.552;9.370;2023-04-19T00:23:21;9.60;99.90
4602;DHT22;2313;48.552;9.370;2023-04-19T00:25:48;9.50;99.90
4602;DHT22;2313;48.552;9.370;2023-04-19T00:28:14;9.50;99.90
4602;DHT22;2313;48.552;9.370;2023-04-19T00:30:40;9.50;99.90
4602;DHT22;2313;48.552;9.370;2023-04-19T00:33:05;9.50;99.90
4602;DHT22;2313;48.552;9.370;2023-04-19T00:35:37;9.50;99.90
4602;DHT22;2313;48.552;9.370;2023-04-19T00:38:03;9.50;99.90
4602;DHT22;2313;48.552;9.370;2023-04-19T00:40:30;9.40;99.90
4602;DHT22;2313;48.552;9.370;2023-04-19T00:42:56;9.40;99.90
4602;DHT22;2313;48.552;9.370;2023-04-19T00:45:21;9.40;99.90
4602;DHT22;2313;48.552;9.370;2023-04-19T00:47:47;9.40;99.90
4602;DHT22;2313;48.552;9.370;2023-04-19T00:50:13;9.40;99.90
4602;DHT22;2313;48.552;9.370;2023-04-19T00:52:38;9.30;99.90
4602;DHT22;2313;48.552;9.370;2023-04-19T00:55:05;9.30;99.90
4602;DHT22;2313;48.552;9.370;2023-04-19T00:57:31;9.30;99.90
4602;DHT22;2313;48.552;9.370;2023-04-19T00:59:57;9.30;99.90
4602;DHT22;2313;48.552;9.370;2023-04-19T01:02:23;9.30;99.90
4602;DHT22;2313;48.552;9.370;2023-04-19T01:04:48;9.30;99.90
4602;DHT22;2313;48.552;9.370;2023-04-19T01:07:14;9.30;99.90
4602;DHT22;2313;48.552;9.370;2023-04-19T01:09:42;9.30;99.90
4602;DHT22;2313;48.552;9.370;2023-04-19T01:12:08;9.30;99.90
4602;DHT22;2313;48.552;9.370;2023-04-19T01:14:33;9.30;99.90
4602;DHT22;2313;48.552;9.370;2023-04-19T01:16:59;9.30;99.90
4602;DHT22;2313;48.552;9.370;2023-04-19T01:19:25;9.30;99.90
4602;DHT22;2313;48.552;9.370;2023-04-19T01:21:51;9.30;99.90
4602;DHT22;2313;48.552;9.370;2023-04-19T01:24:17;9.30;99.90
4602;DHT22;2313;48.552;9.370;2023-04-19T01:26:42;9.30;99.90
4602;DHT22;2313;48.552;9.370;2023-04-19T01:29:08;9.30;99.90
4602;DHT22;2313;48.552;9.370;2023-04-19T01:31:33;9.30;99.90
4602;DHT22;2313;48.552;9.370;2023-04-19T01:33:59;9.30;99.90
4602;DHT22;2313;48.552;9.370;2023-04-19T01:36:25;9.30;99.90
4602;DHT22;2313;48.552;9.370;2023-04-19T01:38:52;9.20;99.90
4602;DHT22;2313;48.552;9.370;2023-04-19T01:41:17;9.20;99.90
4602;DHT22;2313;48.552;9.370;2023-04-19T01:43:44;9.20;99.90
4602;DHT22;2313;48.552;9.370;2023-04-19T01:46:10;9.20;99.90
4602;DHT22;2313;48.552;9.370;2023-04-19T01:48:35;9.20;99.90
4602;DHT22;2313;48.552;9.370;2023-04-19T01:51:01;9.20;99.90
4602;DHT22;2313;48.552;9.370;2023-04-19T01:53:28;9.20;99.90
4602;DHT22;2313;48.552;9.370;2023-04-19T01:55:54;9.20;99.90
4602;DHT22;2313;48.552;9.370;2023-04-19T01:58:20;9.20;99.90
4602;DHT22;2313;48.552;9.370;2023-04-19T02:00:45;9.10;99.90
4602;DHT22;2313;48.552;9.370;2023-04-19T02:03:11;9.10;99.90
4602;DHT22;2313;48.552;9.370;2023-04-19T02:05:38;9.20;99.90
4602;DHT22;2313;48.552;9.370;2023-04-19T02:08:04;9.10;99.90
4602;DHT22;2313;48.552;9.370;2023-04-19T02:10:29;9.10;99.90
4602;DHT22;2313;48.552;9.370;2023-04-19T02:12:55;9.10;99.90
4602;DHT22;2313;48.552;9.370;2023-04-19T02:15:21;9.10;99.90
4602;DHT22;2313;48.552;9.370;2023-04-19T02:17:46;9.10;99.90
4602;DHT22;2313;48.552;9.370;2023-04-19T02:20:12;9.10;99.90
4602;DHT22;2313;48.552;9.370;2023-04-19T02:22:37;9.10;99.90
4602;DHT22;2313;48.552;9.370;2023-04-19T02:25:04;9.10;99.90
4602;DHT22;2313;48.552;9.370;2023-04-19T02:27:30;9.10;99.90
4602;DHT22;2313;48.552;9.370;2023-04-19T02:29:55;9.10;99.90
4602;DHT22;2313;48.552;9.370;2023-04-19T02:32:21;9.10;99.90
4602;DHT22;2313;48.552;9.370;2023-04-19T02:34:47;9.00;99.90
4602;DHT22;2313;48.552;9.370;2023-04-19T02:37:12;9.00;99.90
4602;DHT22;2313;48.552;9.370;2023-04-19T02:39:38;9.00;99.90
4602;DHT22;2313;48.552;9.370;2023-04-19T02:42:06;9.00;99.90
4602;DHT22;2313;48.552;9.370;2023-04-19T02:44:31;9.00;99.90
4602;DHT22;2313;48.552;9.370;2023-04-19T02:46:57;9.00;99.90
4602;DHT22;2313;48.552;9.370;2023-04-19T02:49:22;9.00;99.90
4602;DHT22;2313;48.552;9.370;2023-04-19T02:51:50;8.90;99.90
4602;DHT22;2313;48.552;9.370;2023-04-19T02:54:16;9.00;99.90
4602;DHT22;2313;48.552;9.370;2023-04-19T02:56:41;8.90;99.90
4602;DHT22;2313;48.552;9.370;2023-04-19T02:59:07;8.90;99.90
4602;DHT22;2313;48.552;9.370;2023-04-19T03:01:32;8.90;99.90
4602;DHT22;2313;48.552;9.370;2023-04-19T03:03:58;8.90;99.90
4602;DHT22;2313;48.552;9.370;2023-04-19T03:06:24;8.90;99.90
4602;DHT22;2313;48.552;9.370;2023-04-19T03:08:50;8.90;99.90
4602;DHT22;2313;48.552;9.370;2023-04-19T03:11:16;8.90;99.90
4602;DHT22;2313;48.552;9.370;2023-04-19T03:13:42;8.90;99.90
4602;DHT22;2313;48.552;9.370;2023-04-19T03:16:08;8.90;99.90
4602;DHT22;2313;48.552;9.370;2023-04-19T03:18:34;8.90;99.90
4602;DHT22;2313;48.552;9.370;2023-04-19T03:20:59;8.90;99.90
4602;DHT22;2313;48.552;9.370;2023-04-19T03:23:25;8.90;99.90
4602;DHT22;2313;48.552;9.370;2023-04-19T03:25:53;8.90;99.90
4602;DHT22;2313;48.552;9.370;2023-04-19T03:28:19;8.80;99.90
4602;DHT22;2313;48.552;9.370;2023-04-19T03:30:45;8.80;99.90
4602;DHT22;2313;48.552;9.370;2023-04-19T03:33:10;8.80;99.90
4602;DHT22;2313;48.552;9.370;2023-04-19T03:35:36;8.80;99.90
4602;DHT22;2313;48.552;9.370;2023-04-19T03:38:02;8.80;99.90
4602;DHT22;2313;48.552;9.370;2023-04-19T03:40:29;8.70;99.90
4602;DHT22;2313;48.552;9.370;2023-04-19T03:42:55;8.80;99.90
4602;DHT22;2313;48.552;9.370;2023-04-19T03:45:20;8.70;99.90
4602;DHT22;2313;48.552;9.370;2023-04-19T03:47:46;8.70;99.90
4602;DHT22;2313;48.552;9.370;2023-04-19T03:50:12;8.70;99.90
4602;DHT22;2313;48.552;9.370;2023-04-19T03:52:37;8.70;99.90
4602;DHT22;2313;48.552;9.370;2023-04-19T03:55:03;8.80;99.90
4602;DHT22;2313;48.552;9.370;2023-04-19T03:57:29;8.80;99.90
4602;DHT22;2313;48.552;9.370;2023-04-19T03:59:55;8.80;99.90
4602;DHT22;2313;48.552;9.370;2023-04-19T04:02:20;8.80;99.90
4602;DHT22;2313;48.552;9.370;2023-04-19T04:04:51;8.80;99.90
4602;DHT22;2313;48.552;9.370;2023-04-19T04:07:17;8.80;99.90
4602;DHT22;2313;48.552;9.370;2023-04-19T04:09:42;8.80;99.90
4602;DHT22;2313;48.552;9.370;2023-04-19T04:12:09;8.80;99.90
4602;DHT22;2313;48.552;9.370;2023-04-19T04:14:37;8.80;99.90
4602;DHT22;2313;48.552;9.370;2023-04-19T04:17:02;8.80;99.90
4602;DHT22;2313;48.552;9.370;2023-04-19T04:19:28;8.80;99.90
4602;DHT22;2313;48.552;9.370;2023-04-19T04:21:53;8.80;99.90
4602;DHT22;2313;48.552;9.370;2023-04-19T04:24:19;8.70;99.90
4602;DHT22;2313;48.552;9.370;2023-04-19T04:26:46;8.70;99.90
4602;DHT22;2313;48.552;9.370;2023-04-19T04:29:14;8.70;99.90
4602;DHT22;2313;48.552;9.370;2023-04-19T04:31:40;8.70;99.90
4602;DHT22;2313;48.552;9.370;2023-04-19T04:34:05;8.60;99.90
4602;DHT22;2313;48.552;9.370;2023-04-19T04:36:33;8.70;99.90
4602;DHT22;2313;48.552;9.370;2023-04-19T04:39:01;8.60;99.90
4602;DHT22;2313;48.552;9.370;2023-04-19T04:41:26;8.70;99.90
4602;DHT22;2313;48.552;9.370;2023-04-19T04:43:52;8.60;99.90
4602;DHT22;2313;48.552;9.370;2023-04-19T04:46:18;8.60;99.90
4602;DHT22;2313;48.552;9.370;2023-04-19T04:48:43;8.60;99.90
4602;DHT22;2313;48.552;9.370;2023-04-19T04:51:09;8.60;99.90
4602;DHT22;2313;48.552;9.370;2023-04-19T04:53:35;8.60;99.90
4602;DHT22;2313;48.552;9.370;2023-04-19T04:56:00;8.60;99.90
4602;DHT22;2313;48.552;9.370;2023-04-19T04:58:26;8.60;99.90
4602;DHT22;2313;48.552;9.370;2023-04-19T05:00:51;8.60;99.90
4602;DHT22;2313;48.552;9.370;2023-04-19T05:03:17;8.60;99.90
4602;DHT22;2313;48.552;9.370;2023-04-19T05:05:43;8.60;99.90
4602;DHT22;2313;48.552;9.370;2023-04-19T05:08:08;8.60;99.90
4602;DHT22;2313;48.552;9.370;2023-04-19T05:10:34;8.60;99.90
4602;DHT22;2313;48.552;9.370;2023-04-19T05:13:00;8.70;99.90
4602;DHT22;2313;48.552;9.370;2023-04-19T05:15:26;8.60;99.90
4602;DHT22;2313;48.552;9.370;2023-04-19T05:17:51;8.70;99.90
4602;DHT22;2313;48.552;9.370;2023-04-19T05:20:17;8.70;99.90
4602;DHT22;2313;48.552;9.370;2023-04-19T05:22:42;8.70;99.90
4602;DHT22;2313;48.552;9.370;2023-04-19T05:25:09;8.80;99.90
4602;DHT22;2313;48.552;9.370;2023-04-19T05:27:35;8.80;99.90
4602;DHT22;2313;48.552;9.370;2023-04-19T05:30:00;8.80;99.90
4602;DHT22;2313;48.552;9.370;2023-04-19T05:32:26;8.90;99.90
4602;DHT22;2313;48.552;9.370;2023-04-19T05:34:54;8.90;99.90
4602;DHT22;2313;48.552;9.370;2023-04-19T05:37:19;8.90;99.90
4602;DHT22;2313;48.552;9.370;2023-04-19T05:39:45;9.10;99.90
4602;DHT22;2313;48.552;9.370;2023-04-19T05:42:10;9.00;99.90
4602;DHT22;2313;48.552;9.370;2023-04-19T05:44:36;9.10;99.90
4602;DHT22;2313;48.552;9.370;2023-04-19T05:47:02;9.20;99.90
4602;DHT22;2313;48.552;9.370;2023-04-19T05:49:27;9.20;99.90
4602;DHT22;2313;48.552;9.370;2023-04-19T05:51:53;9.30;99.90
4602;DHT22;2313;48.552;9.370;2023-04-19T05:54:19;9.40;99.90
4602;DHT22;2313;48.552;9.370;2023-04-19T05:56:45;9.50;99.90
4602;DHT22;2313;48.552;9.370;2023-04-19T05:59:11;9.50;99.90
4602;DHT22;2313;48.552;9.370;2023-04-19T06:01:38;9.60;99.90
4602;DHT22;2313;48.552;9.370;2023-04-19T06:04:03;9.50;99.90
4602;DHT22;2313;48.552;9.370;2023-04-19T06:06:29;9.50;99.90
4602;DHT22;2313;48.552;9.370;2023-04-19T06:08:55;9.60;99.90
4602;DHT22;2313;48.552;9.370;2023-04-19T06:11:21;9.50;99.90
4602;DHT22;2313;48.552;9.370;2023-04-19T06:13:47;9.40;99.90
4602;DHT22;2313;48.552;9.370;2023-04-19T06:16:12;9.40;99.90
4602;DHT22;2313;48.552;9.370;2023-04-19T06:18:38;9.40;99.90
4602;DHT22;2313;48.552;9.370;2023-04-19T06:21:04;9.50;99.90
4602;DHT22;2313;48.552;9.370;2023-04-19T06:23:30;9.40;99.90
4602;DHT22;2313;48.552;9.370;2023-04-19T06:25:56;9.40;99.90
4602;DHT22;2313;48.552;9.370;2023-04-19T06:28:21;9.30;99.90
4602;DHT22;2313;48.552;9.370;2023-04-19T06:30:47;9.30;99.90
4602;DHT22;2313;48.552;9.370;2023-04-19T06:33:12;9.30;99.90
4602;DHT22;2313;48.552;9.370;2023-04-19T06:35:38;9.30;99.90
4602;DHT22;2313;48.552;9.370;2023-04-19T06:38:03;9.30;99.90
4602;DHT22;2313;48.552;9.370;2023-04-19T06:40:29;9.30;99.90
4602;DHT22;2313;48.552;9.370;2023-04-19T06:42:55;9.40;99.90
4602;DHT22;2313;48.552;9.370;2023-04-19T06:45:20;9.40;99.90
4602;DHT22;2313;48.552;9.370;2023-04-19T06:47:46;9.40;99.90
4602;DHT22;2313;48.552;9.370;2023-04-19T06:50:12;9.40;99.90
4602;DHT22;2313;48.552;9.370;2023-04-19T06:52:38;9.50;99.90
4602;DHT22;2313;48.552;9.370;2023-04-19T06:55:08;9.50;99.90
4602;DHT22;2313;48.552;9.370;2023-04-19T06:57:34;9.60;99.90
4602;DHT22;2313;48.552;9.370;2023-04-19T06:59:59;9.60;99.90
4602;DHT22;2313;48.552;9.370;2023-04-19T07:02:25;9.60;99.90
4602;DHT22;2313;48.552;9.370;2023-04-19T07:04:51;9.70;99.90
4602;DHT22;2313;48.552;9.370;2023-04-19T07:07:16;9.70;99.90
4602;DHT22;2313;48.552;9.370;2023-04-19T07:09:42;9.70;99.90
4602;DHT22;2313;48.552;9.370;2023-04-19T07:12:07;9.80;99.90
4602;DHT22;2313;48.552;9.370;2023-04-19T07:14:33;9.80;99.90
4602;DHT22;2313;48.552;9.370;2023-04-19T07:16:59;9.80;99.90
4602;DHT22;2313;48.552;9.370;2023-04-19T07:19:25;9.70;99.90
4602;DHT22;2313;48.552;9.370;2023-04-19T07:21:50;9.70;99.90
4602;DHT22;2313;48.552;9.370;2023-04-19T07:24:16;9.70;99.90
4602;DHT22;2313;48.552;9.370;2023-04-19T07:26:42;9.70;99.90
4602;DHT22;2313;48.552;9.370;2023-04-19T07:29:08;9.70;99.90
4602;DHT22;2313;48.552;9.370;2023-04-19T07:31:33;9.70;99.90
4602;DHT22;2313;48.552;9.370;2023-04-19T07:33:59;9.80;99.90
4602;DHT22;2313;48.552;9.370;2023-04-19T07:36:25;9.90;99.90
4602;DHT22;2313;48.552;9.370;2023-04-19T07:38:50;9.90;99.90
4602;DHT22;2313;48.552;9.370;2023-04-19T07:41:16;9.90;99.90
4602;DHT22;2313;48.552;9.370;2023-04-19T07:43:42;10.00;99.90
4602;DHT22;2313;48.552;9.370;2023-04-19T07:46:09;10.10;99.90
4602;DHT22;2313;48.552;9.370;2023-04-19T07:48:35;10.20;99.90
4602;DHT22;2313;48.552;9.370;2023-04-19T07:51:15;10.20;99.90
4602;DHT22;2313;48.552;9.370;2023-04-19T07:53:41;10.30;99.90
4602;DHT22;2313;48.552;9.370;2023-04-19T07:56:08;10.30;99.90
4602;DHT22;2313;48.552;9.370;2023-04-19T07:58:37;10.40;99.90
4602;DHT22;2313;48.552;9.370;2023-04-19T08:01:06;10.50;99.90
4602;DHT22;2313;48.552;9.370;2023-04-19T08:03:35;10.50;99.90
4602;DHT22;2313;48.552;9.370;2023-04-19T08:06:03;10.60;99.90
4602;DHT22;2313;48.552;9.370;2023-04-19T08:08:30;10.70;99.90
4602;DHT22;2313;48.552;9.370;2023-04-19T08:10:56;10.90;99.90
4602;DHT22;2313;48.552;9.370;2023-04-19T08:13:21;10.90;99.90
4602;DHT22;2313;48.552;9.370;2023-04-19T08:15:47;11.10;99.90
4602;DHT22;2313;48.552;9.370;2023-04-19T08:18:13;11.20;99.90
4602;DHT22;2313;48.552;9.370;2023-04-19T08:20:39;11.20;99.90
4602;DHT22;2313;48.552;9.370;2023-04-19T08:23:07;11.10;99.90
4602;DHT22;2313;48.552;9.370;2023-04-19T08:25:33;11.20;99.90
4602;DHT22;2313;48.552;9.370;2023-04-19T08:27:59;11.10;99.90
4602;DHT22;2313;48.552;9.370;2023-04-19T08:30:25;11.00;99.90
4602;DHT22;2313;48.552;9.370;2023-04-19T08:32:50;11.10;99.90
4602;DHT22;2313;48.552;9.370;2023-04-19T08:35:16;11.00;99.90
4602;DHT22;2313;48.552;9.370;2023-04-19T08:37:42;11.00;99.90
4602;DHT22;2313;48.552;9.370;2023-04-19T08:40:07;11.00;99.90
4602;DHT22;2313;48.552;9.370;2023-04-19T08:42:34;11.00;99.90
4602;DHT22;2313;48.552;9.370;2023-04-19T08:45:00;11.10;99.90
4602;DHT22;2313;48.552;9.370;2023-04-19T08:47:33;11.20;99.90
4602;DHT22;2313;48.552;9.370;2023-04-19T08:50:00;11.10;99.90
4602;DHT22;2313;48.552;9.370;2023-04-19T08:52:26;11.00;99.90
4602;DHT22;2313;48.552;9.370;2023-04-19T08:54:53;11.00;99.90
4602;DHT22;2313;48.552;9.370;2023-04-19T08:57:19;11.00;99.90
4602;DHT22;2313;48.552;9.370;2023-04-19T08:59:45;11.00;99.90
4602;DHT22;2313;48.552;9.370;2023-04-19T09:02:15;11.10;99.90
4602;DHT22;2313;48.552;9.370;2023-04-19T09:04:41;11.20;99.90
4602;DHT22;2313;48.552;9.370;2023-04-19T09:07:06;11.30;99.90
4602;DHT22;2313;48.552;9.370;2023-04-19T09:09:35;11.40;99.90
4602;DHT22;2313;48.552;9.370;2023-04-19T09:12:01;11.50;99.90
4602;DHT22;2313;48.552;9.370;2023-04-19T09:14:27;11.60;99.90
4602;DHT22;2313;48.552;9.370;2023-04-19T09:16:53;11.70;99.90
4602;DHT22;2313;48.552;9.370;2023-04-19T09:19:45;11.80;99.90
4602;DHT22;2313;48.552;9.370;2023-04-19T09:22:12;11.90;99.90
4602;DHT22;2313;48.552;9.370;2023-04-19T09:24:39;11.80;99.90
4602;DHT22;2313;48.552;9.370;2023-04-19T09:27:04;11.90;99.90
4602;DHT22;2313;48.552;9.370;2023-04-19T09:29:30;11.80;99.90
4602;DHT22;2313;48.552;9.370;2023-04-19T09:31:58;11.90;99.90
4602;DHT22;2313;48.552;9.370;2023-04-19T09:34:24;11.90;99.90
4602;DHT22;2313;48.552;9.370;2023-04-19T09:36:49;12.00;99.90
4602;DHT22;2313;48.552;9.370;2023-04-19T09:39:30;12.00;99.90
4602;DHT22;2313;48.552;9.370;2023-04-19T09:41:56;12.10;99.90
4602;DHT22;2313;48.552;9.370;2023-04-19T09:44:22;12.20;99.90
4602;DHT22;2313;48.552;9.370;2023-04-19T09:46:48;12.30;99.90
4602;DHT22;2313;48.552;9.370;2023-04-19T09:49:21;12.40;99.90
4602;DHT22;2313;48.552;9.370;2023-04-19T09:54:16;12.50;99.90
4602;DHT22;2313;48.552;9.370;2023-04-19T09:56:43;12.60;99.90
4602;DHT22;2313;48.552;9.370;2023-04-19T09:59:09;12.80;99.90
4602;DHT22;2313;48.552;9.370;2023-04-19T10:01:47;12.90;99.90
4602;DHT22;2313;48.552;9.370;2023-04-19T10:04:16;13.10;99.90
4602;DHT22;2313;48.552;9.370;2023-04-19T10:06:50;13.10;99.90
4602;DHT22;2313;48.552;9.370;2023-04-19T10:09:20;12.90;99.90
4602;DHT22;2313;48.552;9.370;2023-04-19T10:11:57;13.00;99.90
4602;DHT22;2313;48.552;9.370;2023-04-19T10:14:24;12.90;99.90
4602;DHT22;2313;48.552;9.370;2023-04-19T10:16:50;12.80;99.90
4602;DHT22;2313;48.552;9.370;2023-04-19T10:19:18;12.80;99.90
4602;DHT22;2313;48.552;9.370;2023-04-19T10:21:46;12.70;99.90
4602;DHT22;2313;48.552;9.370;2023-04-19T10:24:13;12.70;99.90
4602;DHT22;2313;48.552;9.370;2023-04-19T10:27:11;12.70;99.90
4602;DHT22;2313;48.552;9.370;2023-04-19T10:30:02;12.60;99.90
4602;DHT22;2313;48.552;9.370;2023-04-19T10:32:38;12.60;99.90
4602;DHT22;2313;48.552;9.370;2023-04-19T10:35:20;12.60;99.90
4602;DHT22;2313;48.552;9.370;2023-04-19T10:43:19;12.50;99.90
4602;DHT22;2313;48.552;9.370;2023-04-19T10:45:46;12.60;99.90
4602;DHT22;2313;48.552;9.370;2023-04-19T10:51:04;12.60;99.90
4602;DHT22;2313;48.552;9.370;2023-04-19T10:56:22;12.80;99.90
4602;DHT22;2313;48.552;9.370;2023-04-19T11:04:05;13.80;99.90
4602;DHT22;2313;48.552;9.370;2023-04-19T11:06:31;14.20;99.90
4602;DHT22;2313;48.552;9.370;2023-04-19T11:08:57;14.60;99.90
4602;DHT22;2313;48.552;9.370;2023-04-19T11:11:22;14.70;99.90
4602;DHT22;2313;48.552;9.370;2023-04-19T11:13:50;14.70;99.90
4602;DHT22;2313;48.552;9.370;2023-04-19T11:16:16;14.70;99.90
4602;DHT22;2313;48.552;9.370;2023-04-19T11:18:42;14.60;99.90
4602;DHT22;2313;48.552;9.370;2023-04-19T11:21:12;14.60;99.90
4602;DHT22;2313;48.552;9.370;2023-04-19T11:23:39;14.40;99.90
4602;DHT22;2313;48.552;9.370;2023-04-19T11:26:09;14.10;99.90
4602;DHT22;2313;48.552;9.370;2023-04-19T11:28:36;14.10;99.90
4602;DHT22;2313;48.552;9.370;2023-04-19T11:31:02;13.70;99.90
4602;DHT22;2313;48.552;9.370;2023-04-19T11:33:33;13.50;99.90
4602;DHT22;2313;48.552;9.370;2023-04-19T11:35:58;13.40;99.90
4602;DHT22;2313;48.552;9.370;2023-04-19T11:38:29;13.30;99.90
4602;DHT22;2313;48.552;9.370;2023-04-19T11:41:02;13.10;99.90
4602;DHT22;2313;48.552;9.370;2023-04-19T11:43:32;12.90;99.90
4602;DHT22;2313;48.552;9.370;2023-04-19T11:46:04;12.70;99.90
4602;DHT22;2313;48.552;9.370;2023-04-19T11:48:30;12.60;99.90
4602;DHT22;2313;48.552;9.370;2023-04-19T11:50:57;12.60;99.90
4602;DHT22;2313;48.552;9.370;2023-04-19T11:53:24;12.40;99.90
4602;DHT22;2313;48.552;9.370;2023-04-19T11:56:10;12.30;99.90
4602;DHT22;2313;48.552;9.370;2023-04-19T11:58:43;12.30;99.90
4602;DHT22;2313;48.552;9.370;2023-04-19T12:01:11;12.20;99.90
4602;DHT22;2313;48.552;9.370;2023-04-19T12:03:46;12.20;99.90
4602;DHT22;2313;48.552;9.370;2023-04-19T12:06:20;12.10;99.90
4602;DHT22;2313;48.552;9.370;2023-04-19T12:08:49;12.10;99.90
4602;DHT22;2313;48.552;9.370;2023-04-19T12:11:16;12.20;99.90
4602;DHT22;2313;48.552;9.370;2023-04-19T12:13:43;12.10;99.90
4602;DHT22;2313;48.552;9.370;2023-04-19T12:16:09;12.10;99.90
4602;DHT22;2313;48.552;9.370;2023-04-19T12:18:51;12.10;99.90
4602;DHT22;2313;48.552;9.370;2023-04-19T12:21:25;12.10;99.90
4602;DHT22;2313;48.552;9.370;2023-04-19T12:23:59;12.00;99.90
4602;DHT22;2313;48.552;9.370;2023-04-19T12:26:26;11.90;99.90
4602;DHT22;2313;48.552;9.370;2023-04-19T12:28:53;11.80;99.90
4602;DHT22;2313;48.552;9.370;2023-04-19T12:31:19;11.80;99.90
4602;DHT22;2313;48.552;9.370;2023-04-19T12:33:45;11.80;99.90
4602;DHT22;2313;48.552;9.370;2023-04-19T12:36:11;11.80;99.90
4602;DHT22;2313;48.552;9.370;2023-04-19T12:38:37;11.70;99.90
4602;DHT22;2313;48.552;9.370;2023-04-19T12:41:02;11.70;99.90
4602;DHT22;2313;48.552;9.370;2023-04-19T12:43:28;11.70;99.90
4602;DHT22;2313;48.552;9.370;2023-04-19T12:45:58;11.60;99.90
4602;DHT22;2313;48.552;9.370;2023-04-19T12:48:24;11.40;99.90
4602;DHT22;2313;48.552;9.370;2023-04-19T12:50:50;11.20;99.90
4602;DHT22;2313;48.552;9.370;2023-04-19T12:53:16;11.20;99.90
4602;DHT22;2313;48.552;9.370;2023-04-19T12:55:41;11.10;99.90
4602;DHT22;2313;48.552;9.370;2023-04-19T12:58:15;11.00;99.90
4602;DHT22;2313;48.552;9.370;2023-04-19T13:00:41;10.90;99.90
4602;DHT22;2313;48.552;9.370;2023-04-19T13:03:07;10.80;99.90
4602;DHT22;2313;48.552;9.370;2023-04-19T13:05:32;10.70;99.90
4602;DHT22;2313;48.552;9.370;2023-04-19T13:07:58;10.60;99.90
4602;DHT22;2313;48.552;9.370;2023-04-19T13:10:24;10.50;99.90
4602;DHT22;2313;48.552;9.370;2023-04-19T13:12:50;10.30;99.90
4602;DHT22;2313;48.552;9.370;2023-04-19T13:15:16;10.30;99.90
4602;DHT22;2313;48.552;9.370;2023-04-19T13:17:42;10.20;99.90
4602;DHT22;2313;48.552;9.370;2023-04-19T13:20:08;10.20;99.90
4602;DHT22;2313;48.552;9.370;2023-04-19T13:22:34;10.20;99.90
4602;DHT22;2313;48.552;9.370;2023-04-19T13:24:59;10.10;99.90
4602;DHT22;2313;48.552;9.370;2023-04-19T13:27:25;10.00;99.90
4602;DHT22;2313;48.552;9.370;2023-04-19T13:29:52;10.00;99.90
4602;DHT22;2313;48.552;9.370;2023-04-19T13:32:18;10.00;99.90
4602;DHT22;2313;48.552;9.370;2023-04-19T13:34:43;9.90;99.90
4602;DHT22;2313;48.552;9.370;2023-04-19T13:37:09;9.80;99.90
4602;DHT22;2313;48.552;9.370;2023-04-19T13:39:35;9.80;99.90
4602;DHT22;2313;48.552;9.370;2023-04-19T13:42:01;9.80;99.90
4602;DHT22;2313;48.552;9.370;2023-04-19T13:44:27;9.80;99.90
4602;DHT22;2313;48.552;9.370;2023-04-19T13:46:53;9.80;99.90
4602;DHT22;2313;48.552;9.370;2023-04-19T13:49:19;9.80;99.90
4602;DHT22;2313;48.552;9.370;2023-04-19T13:51:45;9.70;99.90
4602;DHT22;2313;48.552;9.370;2023-04-19T13:54:11;9.70;99.90
4602;DHT22;2313;48.552;9.370;2023-04-19T13:56:36;9.70;99.90
4602;DHT22;2313;48.552;9.370;2023-04-19T13:59:02;9.60;99.90
4602;DHT22;2313;48.552;9.370;2023-04-19T14:01:28;9.50;99.90
4602;DHT22;2313;48.552;9.370;2023-04-19T14:03:53;9.40;99.90
4602;DHT22;2313;48.552;9.370;2023-04-19T14:06:19;9.20;99.90
4602;DHT22;2313;48.552;9.370;2023-04-19T14:08:44;9.20;99.90
4602;DHT22;2313;48.552;9.370;2023-04-19T14:11:10;9.30;99.90
4602;DHT22;2313;48.552;9.370;2023-04-19T14:13:36;9.30;99.90
4602;DHT22;2313;48.552;9.370;2023-04-19T14:16:02;9.20;99.90
4602;DHT22;2313;48.552;9.370;2023-04-19T14:18:28;9.20;99.90
4602;DHT22;2313;48.552;9.370;2023-04-19T14:20:54;9.10;99.90
4602;DHT22;2313;48.552;9.370;2023-04-19T14:23:19;9.10;99.90
4602;DHT22;2313;48.552;9.370;2023-04-19T14:25:45;9.10;99.90
4602;DHT22;2313;48.552;9.370;2023-04-19T14:28:11;9.00;99.90
4602;DHT22;2313;48.552;9.370;2023-04-19T14:30:37;9.00;99.90
4602;DHT22;2313;48.552;9.370;2023-04-19T14:33:03;8.90;99.90
4602;DHT22;2313;48.552;9.370;2023-04-19T14:35:29;8.80;99.90
4602;DHT22;2313;48.552;9.370;2023-04-19T14:37:55;8.70;99.90
4602;DHT22;2313;48.552;9.370;2023-04-19T14:40:20;8.70;99.90
4602;DHT22;2313;48.552;9.370;2023-04-19T14:42:47;8.70;99.90
4602;DHT22;2313;48.552;9.370;2023-04-19T14:45:12;8.80;99.90
4602;DHT22;2313;48.552;9.370;2023-04-19T14:47:38;8.80;99.90
4602;DHT22;2313;48.552;9.370;2023-04-19T14:50:04;8.80;99.90
4602;DHT22;2313;48.552;9.370;2023-04-19T14:52:30;8.80;99.90
4602;DHT22;2313;48.552;9.370;2023-04-19T14:54:55;8.90;99.90
4602;DHT22;2313;48.552;9.370;2023-04-19T14:57:22;8.80;99.90
4602;DHT22;2313;48.552;9.370;2023-04-19T14:59:48;8.70;99.90
4602;DHT22;2313;48.552;9.370;2023-04-19T15:02:13;8.70;99.90
4602;DHT22;2313;48.552;9.370;2023-04-19T15:04:39;8.70;99.90
4602;DHT22;2313;48.552;9.370;2023-04-19T15:07:05;8.60;99.90
4602;DHT22;2313;48.552;9.370;2023-04-19T15:09:30;8.60;99.90
4602;DHT22;2313;48.552;9.370;2023-04-19T15:11:56;8.60;99.90
4602;DHT22;2313;48.552;9.370;2023-04-19T15:14:22;8.50;99.90
4602;DHT22;2313;48.552;9.370;2023-04-19T15:16:48;8.50;99.90
4602;DHT22;2313;48.552;9.370;2023-04-19T15:19:14;8.40;99.90
4602;DHT22;2313;48.552;9.370;2023-04-19T15:21:39;8.50;99.90
4602;DHT22;2313;48.552;9.370;2023-04-19T15:24:05;8.50;99.90
4602;DHT22;2313;48.552;9.370;2023-04-19T15:26:33;8.60;99.90
4602;DHT22;2313;48.552;9.370;2023-04-19T15:28:59;8.50;99.90
4602;DHT22;2313;48.552;9.370;2023-04-19T15:31:24;8.50;99.90
4602;DHT22;2313;48.552;9.370;2023-04-19T15:33:50;8.50;99.90
4602;DHT22;2313;48.552;9.370;2023-04-19T15:36:16;8.50;99.90
4602;DHT22;2313;48.552;9.370;2023-04-19T15:38:42;8.60;99.90
4602;DHT22;2313;48.552;9.370;2023-04-19T15:41:07;8.60;99.90
4602;DHT22;2313;48.552;9.370;2023-04-19T15:43:33;8.60;99.90
4602;DHT22;2313;48.552;9.370;2023-04-19T15:45:59;8.60;99.90
4602;DHT22;2313;48.552;9.370;2023-04-19T15:48:25;8.50;99.90
4602;DHT22;2313;48.552;9.370;2023-04-19T15:50:51;8.60;99.90
4602;DHT22;2313;48.552;9.370;2023-04-19T15:53:16;8.50;99.90
4602;DHT22;2313;48.552;9.370;2023-04-19T15:55:42;8.40;99.90
4602;DHT22;2313;48.552;9.370;2023-04-19T15:58:08;8.50;99.90
4602;DHT22;2313;48.552;9.370;2023-04-19T16:00:34;8.50;99.90
4602;DHT22;2313;48.552;9.370;2023-04-19T16:03:00;8.50;99.90
4602;DHT22;2313;48.552;9.370;2023-04-19T16:05:26;8.60;99.90
4602;DHT22;2313;48.552;9.370;2023-04-19T16:08:05;8.60;99.90
4602;DHT22;2313;48.552;9.370;2023-04-19T16:10:31;8.60;99.90
4602;DHT22;2313;48.552;9.370;2023-04-19T16:12:57;8.70;99.90
4602;DHT22;2313;48.552;9.370;2023-04-19T16:15:23;8.60;99.90
4602;DHT22;2313;48.552;9.370;2023-04-19T16:17:49;8.70;99.90
4602;DHT22;2313;48.552;9.370;2023-04-19T16:20:15;8.70;99.90
4602;DHT22;2313;48.552;9.370;2023-04-19T16:22:40;8.70;99.90
4602;DHT22;2313;48.552;9.370;2023-04-19T16:25:06;8.70;99.90
4602;DHT22;2313;48.552;9.370;2023-04-19T16:27:34;8.80;99.90